ADDS METAR Data INFO
IDs: Format: Raw Decoded Include TAF

Data at: 2359 UTC 26 Jun 2017

ETSI 262320Z AUTO 15001KT 9000 // ////// 20/14 Q1011 ///


Page loaded:  23:59 UTC  |   04:59 PM Pacific  |   05:59 PM Mountain  |   06:59 PM Central  |   07:59 PM Eastern

 

ADVISORIES

FORECASTS

FORECASTS

OBSERVATIONS

USER TOOLS

ABOUT US